Time;durP1;ratioP1;P1;durP2;ratioP2;P2;SDS_P1;SDS_P2;PMS_P1;PMS_P2;Temp;Humidity;BMP_temperature;BMP_pressure;BME280_temperature;BME280_humidity;BME280_pressure;Samples;Min_cycle;Max_cycle;Signal;HPM_P1;HPM_P2
2023/03/23 00:02:19;;;;;;;;;;;;;;;;;;5043387;28;5016;-61
2023/03/23 00:04:44;;;;;;;;;;;;;;;;;;5039453;28;4665;-60
2023/03/23 00:07:12;;;;;;;;;;;;;;;;;;5041209;28;1172;-60
2023/03/23 00:09:40;;;;;;;;;;;;;;;;;;5044166;28;4443;-60
2023/03/23 00:12:06;;;;;;;;;;;;;;;;;;5038466;28;4628;-60
2023/03/23 00:14:40;;;;;;;;;;;;;;;;;;5038561;28;4643;-60
2023/03/23 00:17:06;;;;;;;;;;;;;;;;;;5047759;28;4467;-60
2023/03/23 00:19:32;;;;;;;;;;;;;;;;;;5047137;28;1107;-61
2023/03/23 00:22:00;;;;;;;;;;;;;;;;;;5047803;28;4693;-61
2023/03/23 00:24:25;;;;;;;;;;;;;;;;;;5044932;28;4622;-61
2023/03/23 00:26:52;;;;;;;;;;;;;;;;;;5031520;28;4512;-60
2023/03/23 00:29:19;;;;;;;;;;;;;;;;;;5046533;28;4453;-60
2023/03/23 00:31:47;;;;;;;;;;;;;;;;;;5051473;28;4631;-60
2023/03/23 00:34:18;;;;;;;;;;;;;;;;;;5050722;28;1261;-61
2023/03/23 00:36:44;;;;;;;;;;;;;;;;;;5056010;28;4876;-60
2023/03/23 00:39:09;;;;;;;;;;;;;;;;;;5051570;28;4479;-60
2023/03/23 00:41:36;;;;;;;;;;;;;;;;;;5039637;28;4678;-60
2023/03/23 00:44:02;;;;;;;;;;;;;;;;;;5050740;28;4991;-59
2023/03/23 00:46:27;;;;;;;;;;;;;;;;;;5051845;28;1906;-60
2023/03/23 00:48:53;;;;;;;;;;;;;;;;;;5050809;28;4493;-60
2023/03/23 00:51:18;;;;;;;;;;;;;;;;;;5044918;28;5139;-60
2023/03/23 00:53:44;;;;;;;;;;;;;;;;;;5049082;28;4746;-60
2023/03/23 00:56:09;;;;;;;;;;;;;;;;;;5037855;28;4651;-60
2023/03/23 00:58:34;;;;;;;;;;;;;;;;;;5043786;28;2058;-60
2023/03/23 01:01:00;;;;;;;;;;;;;;;;;;5045566;28;4430;-59
2023/03/23 01:03:25;;;;;;;;;;;;;;;;;;5042861;28;4430;-60
2023/03/23 01:05:51;;;;;;;;;;;;;;;;;;5041160;28;4975;-59
2023/03/23 01:08:18;;;;;;;;;;;;;;;;;;5046127;28;4711;-62
2023/03/23 01:10:43;;;;;;;;;;;;;;;;;;5035648;28;4604;-62
2023/03/23 01:13:09;;;;;;;;;;;;;;;;;;5041472;28;1562;-62
2023/03/23 01:15:35;;;;;;;;;;;;;;;;;;5045507;28;4453;-62
2023/03/23 01:18:00;;;;;;;;;;;;;;;;;;5043718;28;5069;-62
2023/03/23 01:20:31;;;;;;;;;;;;;;;;;;5046962;28;4886;-62
2023/03/23 01:23:00;;;;;;;;;;;;;;;;;;5050425;28;5085;-62
2023/03/23 01:25:25;;;;;;;;;;;;;;;;;;5049284;28;1910;-61
2023/03/23 01:27:51;;;;;;;;;;;;;;;;;;5047503;28;4435;-62
2023/03/23 01:30:16;;;;;;;;;;;;;;;;;;5045124;28;4485;-62
2023/03/23 01:32:41;;;;;;;;;;;;;;;;;;5046162;28;4504;-62
2023/03/23 01:35:07;;;;;;;;;;;;;;;;;;5040907;28;5056;-62
2023/03/23 01:37:32;;;;;;;;;;;;;;;;;;5036574;28;1103;-62
2023/03/23 01:39:57;;;;;;;;;;;;;;;;;;5046209;28;5044;-62
2023/03/23 01:42:30;;;;;;;;;;;;;;;;;;5043437;28;4909;-61
2023/03/23 01:44:55;;;;;;;;;;;;;;;;;;5041847;28;4650;-61
2023/03/23 01:47:23;;;;;;;;;;;;;;;;;;5050229;28;4522;-61
2023/03/23 01:49:48;;;;;;;;;;;;;;;;;;5048693;28;4671;-61
2023/03/23 01:52:16;;;;;;;;;;;;;;;;;;5033371;28;1122;-61
2023/03/23 01:54:44;;;;;;;;;;;;;;;;;;5047376;28;4659;-62
2023/03/23 01:57:11;;;;;;;;;;;;;;;;;;5048880;28;4477;-61
2023/03/23 01:59:36;;;;;;;;;;;;;;;;;;5048384;28;4844;-62
2023/03/23 02:02:01;;;;;;;;;;;;;;;;;;5032073;28;4489;-62
2023/03/23 02:04:27;;;;;;;;;;;;;;;;;;5044295;28;4848;-62
2023/03/23 02:06:52;;;;;;;;;;;;;;;;;;5078613;28;4446;-61
2023/03/23 02:09:18;;;;;;;;;;;;;;;;;;5049273;28;4515;-61
2023/03/23 02:11:44;;;;;;;;;;;;;;;;;;5049909;28;5050;-61
2023/03/23 02:14:09;;;;;;;;;;;;;;;;;;5048039;28;4863;-62
2023/03/23 02:17:01;;;;;;;;;;;;;;;;;;5050378;28;1246;-62
2023/03/23 02:19:36;;;;;;;;;;;;;;;;;;5042273;28;4399;-61
2023/03/23 02:22:07;;;;;;;;;;;;;;;;;;5039453;28;4541;-62
2023/03/23 02:24:44;;;;;;;;;;;;;;;;;;5044301;28;4483;-61
2023/03/23 02:27:16;;;;;;;;;;;;;;;;;;5049592;28;4974;-61
2023/03/23 02:29:47;;;;;;;;;;;;;;;;;;5047545;28;4551;-61
2023/03/23 02:32:21;;;;;;;;;;;;;;;;;;5044758;28;4597;-61
2023/03/23 02:34:53;;;;;;;;;;;;;;;;;;5043298;28;4656;-61
2023/03/23 02:37:21;;;;;;;;;;;;;;;;;;5077555;28;1263;-61
2023/03/23 02:39:51;;;;;;;;;;;;;;;;;;5046528;28;5107;-61
2023/03/23 02:42:36;;;;;;;;;;;;;;;;;;5026739;28;4513;-61
2023/03/23 02:45:05;;;;;;;;;;;;;;;;;;5046804;28;4988;-61
2023/03/23 02:47:30;;;;;;;;;;;;;;;;;;5036835;28;4686;-62
2023/03/23 02:49:56;;;;;;;;;;;;;;;;;;5042095;28;4962;-61
2023/03/23 02:52:22;;;;;;;;;;;;;;;;;;5045626;28;1169;-61
2023/03/23 02:54:48;;;;;;;;;;;;;;;;;;5046824;28;5048;-61
2023/03/23 02:57:13;;;;;;;;;;;;;;;;;;5078945;28;5003;-61
2023/03/23 02:59:39;;;;;;;;;;;;;;;;;;5048817;28;4951;-62
2023/03/23 03:02:10;;;;;;;;;;;;;;;;;;5042524;28;4465;-61
2023/03/23 03:04:35;;;;;;;;;;;;;;;;;;5046586;28;4805;-61
2023/03/23 03:07:09;;;;;;;;;;;;;;;;;;5080944;28;4632;-62
2023/03/23 03:09:35;;;;;;;;;;;;;;;;;;5047034;28;4623;-61
2023/03/23 03:12:03;;;;;;;;;;;;;;;;;;5048643;28;4713;-61
2023/03/23 03:14:30;;;;;;;;;;;;;;;;;;5047420;28;4668;-61
2023/03/23 03:17:03;;;;;;;;;;;;;;;;;;5043724;28;4475;-61
2023/03/23 03:19:29;;;;;;;;;;;;;;;;;;5042739;28;1113;-62
2023/03/23 03:21:54;;;;;;;;;;;;;;;;;;5048968;28;4486;-61
2023/03/23 03:24:20;;;;;;;;;;;;;;;;;;5043354;28;4497;-61
2023/03/23 03:26:47;;;;;;;;;;;;;;;;;;5048443;28;4571;-61
2023/03/23 03:29:13;;;;;;;;;;;;;;;;;;5061731;28;4693;-61
2023/03/23 03:31:39;;;;;;;;;;;;;;;;;;5043739;28;1332;-61
2023/03/23 03:34:04;;;;;;;;;;;;;;;;;;5045483;28;4449;-61
2023/03/23 03:36:34;;;;;;;;;;;;;;;;;;5046818;28;4470;-61
2023/03/23 03:38:59;;;;;;;;;;;;;;;;;;5045646;28;5079;-61
2023/03/23 03:41:25;;;;;;;;;;;;;;;;;;5047163;28;4490;-61
2023/03/23 03:43:50;;;;;;;;;;;;;;;;;;5041208;28;4976;-62
2023/03/23 03:46:15;;;;;;;;;;;;;;;;;;5045982;28;2470;-61
2023/03/23 03:48:40;;;;;;;;;;;;;;;;;;5045804;28;4793;-61
2023/03/23 03:51:05;;;;;;;;;;;;;;;;;;5047209;28;4667;-61
2023/03/23 03:53:31;;;;;;;;;;;;;;;;;;5044384;28;4634;-61
2023/03/23 03:55:59;;;;;;;;;;;;;;;;;;5042621;28;5238;-61
2023/03/23 03:58:24;;;;;;;;;;;;;;;;;;5040042;28;1083;-61
2023/03/23 04:00:50;;;;;;;;;;;;;;;;;;5047319;28;4679;-61
2023/03/23 04:03:16;;;;;;;;;;;;;;;;;;5048016;28;4482;-61
2023/03/23 04:05:41;;;;;;;;;;;;;;;;;;5046540;28;4828;-61
2023/03/23 04:08:06;;;;;;;;;;;;;;;;;;5048158;28;4455;-61
2023/03/23 04:10:32;;;;;;;;;;;;;;;;;;5047340;28;1233;-61
2023/03/23 04:12:57;;;;;;;;;;;;;;;;;;5042845;28;4543;-62
2023/03/23 04:15:22;;;;;;;;;;;;;;;;;;5045660;28;4491;-62
2023/03/23 04:17:48;;;;;;;;;;;;;;;;;;5046150;28;4487;-62
2023/03/23 04:20:17;;;;;;;;;;;;;;;;;;5041067;28;4466;-62
2023/03/23 04:22:48;;;;;;;;;;;;;;;;;;5046836;28;1245;-62
2023/03/23 04:25:14;;;;;;;;;;;;;;;;;;5042108;28;5228;-62
2023/03/23 04:27:43;;;;;;;;;;;;;;;;;;5046006;28;5016;-62
2023/03/23 04:30:08;;;;;;;;;;;;;;;;;;5044599;28;4625;-61
2023/03/23 04:32:33;;;;;;;;;;;;;;;;;;5047576;28;4482;-61
2023/03/23 04:35:01;;;;;;;;;;;;;;;;;;5044089;28;5099;-61
2023/03/23 04:37:28;;;;;;;;;;;;;;;;;;5046564;28;1482;-61
2023/03/23 04:40:07;;;;;;;;;;;;;;;;;;5043488;28;5231;-61
2023/03/23 04:42:32;;;;;;;;;;;;;;;;;;5045707;28;4485;-61
2023/03/23 04:44:58;;;;;;;;;;;;;;;;;;5045326;28;4587;-61
2023/03/23 04:47:24;;;;;;;;;;;;;;;;;;5047922;28;4981;-61
2023/03/23 04:49:51;;;;;;;;;;;;;;;;;;5047049;28;5001;-62
2023/03/23 04:52:16;;;;;;;;;;;;;;;;;;5036594;28;3544;-61
2023/03/23 04:54:42;;;;;;;;;;;;;;;;;;5040398;28;4488;-62
2023/03/23 04:57:08;;;;;;;;;;;;;;;;;;5041528;28;4823;-61
2023/03/23 04:59:33;;;;;;;;;;;;;;;;;;5052806;28;5678;-61
2023/03/23 05:01:59;;;;;;;;;;;;;;;;;;5047185;28;4748;-70
2023/03/23 05:04:24;;;;;;;;;;;;;;;;;;5047433;28;4877;-68
2023/03/23 05:06:50;;;;;;;;;;;;;;;;;;5043426;28;5059;-63
2023/03/23 05:09:15;;;;;;;;;;;;;;;;;;5052059;28;4537;-63
2023/03/23 05:11:41;;;;;;;;;;;;;;;;;;5045183;28;4489;-63
2023/03/23 05:14:06;;;;;;;;;;;;;;;;;;5049723;28;5079;-63
2023/03/23 05:16:31;;;;;;;;;;;;;;;;;;5049878;28;1205;-63
2023/03/23 05:18:59;;;;;;;;;;;;;;;;;;5049407;28;4434;-63
2023/03/23 05:21:26;;;;;;;;;;;;;;;;;;5046134;28;4987;-63
2023/03/23 05:23:54;;;;;;;;;;;;;;;;;;5039540;28;5653;-64
2023/03/23 05:26:20;;;;;;;;;;;;;;;;;;5050894;28;4517;-63
2023/03/23 05:28:45;;;;;;;;;;;;;;;;;;5047441;28;4656;-63
2023/03/23 05:31:10;;;;;;;;;;;;;;;;;;5049962;28;1210;-63
2023/03/23 05:33:36;;;;;;;;;;;;;;;;;;5082707;28;4923;-63
2023/03/23 05:36:04;;;;;;;;;;;;;;;;;;5041802;28;4632;-63
2023/03/23 05:38:29;;;;;;;;;;;;;;;;;;5045038;28;4531;-64
2023/03/23 05:40:59;;;;;;;;;;;;;;;;;;5047329;28;4610;-63
2023/03/23 05:43:25;;;;;;;;;;;;;;;;;;5047833;28;1228;-63
2023/03/23 05:45:50;;;;;;;;;;;;;;;;;;5043489;28;4493;-63
2023/03/23 05:48:16;;;;;;;;;;;;;;;;;;5047073;28;4608;-63
2023/03/23 05:50:41;;;;;;;;;;;;;;;;;;5048400;28;4689;-62
2023/03/23 05:53:06;;;;;;;;;;;;;;;;;;5037997;28;4466;-63
2023/03/23 05:55:31;;;;;;;;;;;;;;;;;;5043222;28;1694;-63
2023/03/23 05:57:58;;;;;;;;;;;;;;;;;;5046261;28;4987;-63
2023/03/23 06:00:24;;;;;;;;;;;;;;;;;;5047188;28;4976;-63
2023/03/23 06:02:50;;;;;;;;;;;;;;;;;;5048045;28;4648;-64
2023/03/23 06:05:16;;;;;;;;;;;;;;;;;;5040479;28;4844;-63
2023/03/23 06:07:41;;;;;;;;;;;;;;;;;;5042083;28;1253;-63
2023/03/23 06:10:07;;;;;;;;;;;;;;;;;;5048153;28;5535;-63
2023/03/23 06:12:32;;;;;;;;;;;;;;;;;;5047548;28;4589;-63
2023/03/23 06:14:58;;;;;;;;;;;;;;;;;;5048438;28;4631;-63
2023/03/23 06:17:23;;;;;;;;;;;;;;;;;;5049040;28;5044;-63
2023/03/23 06:19:50;;;;;;;;;;;;;;;;;;5073478;28;5016;-62
2023/03/23 06:22:16;;;;;;;;;;;;;;;;;;5039491;28;1017;-63
2023/03/23 06:24:41;;;;;;;;;;;;;;;;;;5048065;28;4671;-63
2023/03/23 06:27:07;;;;;;;;;;;;;;;;;;5045588;28;4902;-63
2023/03/23 06:29:33;;;;;;;;;;;;;;;;;;5048899;28;4657;-63
2023/03/23 06:31:59;;;;;;;;;;;;;;;;;;5046718;28;4431;-63
2023/03/23 06:34:24;;;;;;;;;;;;;;;;;;5044070;28;2314;-63
2023/03/23 06:36:50;;;;;;;;;;;;;;;;;;5045509;28;4467;-63
2023/03/23 06:39:15;;;;;;;;;;;;;;;;;;5047425;28;4607;-63
2023/03/23 06:41:40;;;;;;;;;;;;;;;;;;5040311;28;4836;-63
2023/03/23 06:44:06;;;;;;;;;;;;;;;;;;5041346;28;4462;-63
2023/03/23 06:46:31;;;;;;;;;;;;;;;;;;5043018;28;1979;-63
2023/03/23 06:48:57;;;;;;;;;;;;;;;;;;5049026;28;4779;-63
2023/03/23 06:51:22;;;;;;;;;;;;;;;;;;5044516;28;5854;-63
2023/03/23 06:53:47;;;;;;;;;;;;;;;;;;5047834;28;5115;-63
2023/03/23 06:56:13;;;;;;;;;;;;;;;;;;5048571;28;4486;-63
2023/03/23 06:58:38;;;;;;;;;;;;;;;;;;5046056;28;1389;-63
2023/03/23 07:01:03;;;;;;;;;;;;;;;;;;5046216;28;4411;-63
2023/03/23 07:03:30;;;;;;;;;;;;;;;;;;5042734;28;4480;-63
2023/03/23 07:05:56;;;;;;;;;;;;;;;;;;5047628;28;5208;-64
2023/03/23 07:08:21;;;;;;;;;;;;;;;;;;5048702;28;4644;-64
2023/03/23 07:10:47;;;;;;;;;;;;;;;;;;5048489;28;5389;-63
2023/03/23 07:13:12;;;;;;;;;;;;;;;;;;5049119;28;1164;-63
2023/03/23 07:15:38;;;;;;;;;;;;;;;;;;5040729;28;4552;-63
2023/03/23 07:18:03;;;;;;;;;;;;;;;;;;5047908;28;4631;-63
2023/03/23 07:20:28;;;;;;;;;;;;;;;;;;5043315;28;4625;-64
2023/03/23 07:22:54;;;;;;;;;;;;;;;;;;5045387;28;4626;-63
2023/03/23 07:25:19;;;;;;;;;;;;;;;;;;5046159;28;2005;-63
2023/03/23 07:27:45;;;;;;;;;;;;;;;;;;5038788;28;5002;-63
2023/03/23 07:30:11;;;;;;;;;;;;;;;;;;5044721;28;5040;-63
2023/03/23 07:32:36;;;;;;;;;;;;;;;;;;5048092;28;4513;-63
2023/03/23 07:35:01;;;;;;;;;;;;;;;;;;5044563;28;4694;-63
2023/03/23 07:37:28;;;;;;;;;;;;;;;;;;5044770;28;1148;-63
2023/03/23 07:39:53;;;;;;;;;;;;;;;;;;5044734;28;4919;-63
2023/03/23 07:42:19;;;;;;;;;;;;;;;;;;5040068;28;4491;-63
2023/03/23 07:44:44;;;;;;;;;;;;;;;;;;5035566;28;4473;-63
2023/03/23 07:47:09;;;;;;;;;;;;;;;;;;5044232;28;4690;-63
2023/03/23 07:49:35;;;;;;;;;;;;;;;;;;5046260;28;1103;-63
2023/03/23 07:52:01;;;;;;;;;;;;;;;;;;5047911;28;4996;-63
2023/03/23 07:54:26;;;;;;;;;;;;;;;;;;5044101;28;5094;-63
2023/03/23 07:56:51;;;;;;;;;;;;;;;;;;5046067;28;4669;-63
2023/03/23 07:59:17;;;;;;;;;;;;;;;;;;5043151;28;4547;-63
2023/03/23 08:01:42;;;;;;;;;;;;;;;;;;5044994;28;1253;-63
2023/03/23 08:04:07;;;;;;;;;;;;;;;;;;5046946;28;4682;-63
2023/03/23 08:06:33;;;;;;;;;;;;;;;;;;5047718;28;4680;-64
2023/03/23 08:08:59;;;;;;;;;;;;;;;;;;5047720;28;4470;-63
2023/03/23 08:11:24;;;;;;;;;;;;;;;;;;5044210;28;5146;-63
2023/03/23 08:13:50;;;;;;;;;;;;;;;;;;5046987;28;5086;-63
2023/03/23 08:16:15;;;;;;;;;;;;;;;;;;5048322;28;1211;-63
2023/03/23 08:18:41;;;;;;;;;;;;;;;;;;5047632;28;4450;-64
2023/03/23 08:21:08;;;;;;;;;;;;;;;;;;5038641;28;4682;-63
2023/03/23 08:23:33;;;;;;;;;;;;;;;;;;5039385;28;4484;-64
2023/03/23 08:25:59;;;;;;;;;;;;;;;;;;5034397;28;4468;-63
2023/03/23 08:28:24;;;;;;;;;;;;;;;;;;5043324;28;2571;-63
2023/03/23 08:30:49;;;;;;;;;;;;;;;;;;5039413;28;4778;-63
2023/03/23 08:33:15;;;;;;;;;;;;;;;;;;5047840;28;4507;-63
2023/03/23 08:35:41;;;;;;;;;;;;;;;;;;5044002;28;4558;-63
2023/03/23 08:38:06;;;;;;;;;;;;;;;;;;5045712;28;5124;-62
2023/03/23 08:40:32;;;;;;;;;;;;;;;;;;5046028;28;1222;-63
2023/03/23 08:42:57;;;;;;;;;;;;;;;;;;5048226;28;4891;-64
2023/03/23 08:45:23;;;;;;;;;;;;;;;;;;5049534;28;4976;-64
2023/03/23 08:47:51;;;;;;;;;;;;;;;;;;5051053;28;4620;-63
2023/03/23 08:50:17;;;;;;;;;;;;;;;;;;5047462;28;4772;-62
2023/03/23 08:52:43;;;;;;;;;;;;;;;;;;5048060;28;1117;-64
2023/03/23 08:55:08;;;;;;;;;;;;;;;;;;5041606;28;4421;-64
2023/03/23 08:57:34;;;;;;;;;;;;;;;;;;5042281;28;4978;-64
2023/03/23 09:00:13;;;;;;;;;;;;;;;;;;5051283;28;4679;-63
2023/03/23 09:02:39;;;;;;;;;;;;;;;;;;5076511;28;5001;-63
2023/03/23 09:05:04;;;;;;;;;;;;;;;;;;5048947;28;4839;-64
2023/03/23 09:07:29;;;;;;;;;;;;;;;;;;5049842;28;1160;-62
2023/03/23 09:09:55;;;;;;;;;;;;;;;;;;5043922;28;4509;-63
2023/03/23 09:12:20;;;;;;;;;;;;;;;;;;5049940;28;4870;-63
2023/03/23 09:14:45;;;;;;;;;;;;;;;;;;5047851;28;5002;-63
2023/03/23 09:17:11;;;;;;;;;;;;;;;;;;5050695;28;5154;-63
2023/03/23 09:19:36;;;;;;;;;;;;;;;;;;5046180;28;1182;-63
2023/03/23 09:22:01;;;;;;;;;;;;;;;;;;5042872;28;4582;-63
2023/03/23 09:24:27;;;;;;;;;;;;;;;;;;5043081;28;5109;-63
2023/03/23 09:26:52;;;;;;;;;;;;;;;;;;5050060;28;4994;-63
2023/03/23 09:29:18;;;;;;;;;;;;;;;;;;5048017;28;5011;-63
2023/03/23 09:31:46;;;;;;;;;;;;;;;;;;5046556;28;1111;-63
2023/03/23 09:34:11;;;;;;;;;;;;;;;;;;5046063;28;4478;-64
2023/03/23 09:36:38;;;;;;;;;;;;;;;;;;5045202;28;4505;-63
2023/03/23 09:39:07;;;;;;;;;;;;;;;;;;5046755;28;4646;-63
2023/03/23 09:41:39;;;;;;;;;;;;;;;;;;5039531;28;4633;-63
2023/03/23 09:44:10;;;;;;;;;;;;;;;;;;5047330;28;4715;-64
2023/03/23 09:46:51;;;;;;;;;;;;;;;;;;5042873;28;1910;-63
2023/03/23 09:49:16;;;;;;;;;;;;;;;;;;5043230;28;5244;-63
2023/03/23 09:51:47;;;;;;;;;;;;;;;;;;5044192;28;4481;-62
2023/03/23 09:54:17;;;;;;;;;;;;;;;;;;5036755;28;4703;-63
2023/03/23 09:56:42;;;;;;;;;;;;;;;;;;5038857;28;5021;-63
2023/03/23 09:59:20;;;;;;;;;;;;;;;;;;5046798;28;5160;-63
2023/03/23 10:01:47;;;;;;;;;;;;;;;;;;5048466;28;5018;-63
2023/03/23 10:04:32;;;;;;;;;;;;;;;;;;5042323;28;4928;-63
2023/03/23 10:07:25;;;;;;;;;;;;;;;;;;5048198;28;4679;-63
2023/03/23 10:09:54;;;;;;;;;;;;;;;;;;5046094;28;5049;-63
2023/03/23 10:12:31;;;;;;;;;;;;;;;;;;5048792;28;4607;-63
2023/03/23 10:15:06;;;;;;;;;;;;;;;;;;5049469;28;4696;-63
2023/03/23 10:17:50;;;;;;;;;;;;;;;;;;5046048;28;5005;-63
2023/03/23 10:20:15;;;;;;;;;;;;;;;;;;5045062;28;5160;-63
2023/03/23 10:22:43;;;;;;;;;;;;;;;;;;5050354;28;1229;-64
2023/03/23 10:25:12;;;;;;;;;;;;;;;;;;5044938;28;4629;-62
2023/03/23 10:27:40;;;;;;;;;;;;;;;;;;5046639;28;4598;-63
2023/03/23 10:30:13;;;;;;;;;;;;;;;;;;5045704;28;5097;-60
2023/03/23 10:32:53;;;;;;;;;;;;;;;;;;5041017;28;5005;-63
2023/03/23 10:35:20;;;;;;;;;;;;;;;;;;5038511;28;5033;-63
2023/03/23 10:37:50;;;;;;;;;;;;;;;;;;5041807;28;4894;-64
2023/03/23 10:40:16;;;;;;;;;;;;;;;;;;5032271;28;1468;-63
2023/03/23 10:42:42;;;;;;;;;;;;;;;;;;5047629;28;4629;-63
2023/03/23 10:45:13;;;;;;;;;;;;;;;;;;5037381;28;4658;-63
2023/03/23 10:47:39;;;;;;;;;;;;;;;;;;5035192;28;4497;-62
2023/03/23 10:50:05;;;;;;;;;;;;;;;;;;5042225;28;4724;-62
2023/03/23 10:52:35;;;;;;;;;;;;;;;;;;5043196;28;1203;-61
2023/03/23 10:55:16;;;;;;;;;;;;;;;;;;5038046;28;5022;-62
2023/03/23 10:57:43;;;;;;;;;;;;;;;;;;5041510;28;4718;-63
2023/03/23 11:00:16;;;;;;;;;;;;;;;;;;5043738;28;5391;-63
2023/03/23 11:02:42;;;;;;;;;;;;;;;;;;5043594;28;5184;-62
2023/03/23 11:05:15;;;;;;;;;;;;;;;;;;5048071;28;5168;-63
2023/03/23 11:07:41;;;;;;;;;;;;;;;;;;5046326;28;1245;-63
2023/03/23 11:10:11;;;;;;;;;;;;;;;;;;5047122;28;4395;-63
2023/03/23 11:12:36;;;;;;;;;;;;;;;;;;5039874;28;4713;-63
2023/03/23 11:15:31;;;;;;;;;;;;;;;;;;5045524;28;6016;-63
2023/03/23 11:17:58;;;;;;;;;;;;;;;;;;5035272;28;4652;-63
2023/03/23 11:20:24;;;;;;;;;;;;;;;;;;5022004;28;4832;-62
2023/03/23 11:22:49;;;;;;;;;;;;;;;;;;5027204;28;4965;-62
2023/03/23 11:25:14;;;;;;;;;;;;;;;;;;5024808;28;1911;-63
2023/03/23 11:27:40;;;;;;;;;;;;;;;;;;5024944;28;5006;-62
2023/03/23 11:30:12;;;;;;;;;;;;;;;;;;5028236;28;5127;-62
2023/03/23 11:32:37;;;;;;;;;;;;;;;;;;5047674;28;5281;-63
2023/03/23 11:35:04;;;;;;;;;;;;;;;;;;5046180;28;4660;-63
2023/03/23 11:37:32;;;;;;;;;;;;;;;;;;5038760;28;1164;-62
2023/03/23 11:40:18;;;;;;;;;;;;;;;;;;5077518;28;4810;-63
2023/03/23 11:42:46;;;;;;;;;;;;;;;;;;5042669;28;4482;-63
2023/03/23 11:45:17;;;;;;;;;;;;;;;;;;5040102;28;4987;-63
2023/03/23 11:48:01;;;;;;;;;;;;;;;;;;5037964;28;5004;-62
2023/03/23 11:50:32;;;;;;;;;;;;;;;;;;5046482;28;4679;-62
2023/03/23 11:53:01;;;;;;;;;;;;;;;;;;5039720;28;4447;-62
2023/03/23 11:55:28;;;;;;;;;;;;;;;;;;5035466;28;1495;-64
2023/03/23 11:57:54;;;;;;;;;;;;;;;;;;5070629;28;4631;-63
2023/03/23 12:00:20;;;;;;;;;;;;;;;;;;5048203;28;5030;-63
2023/03/23 12:03:04;;;;;;;;;;;;;;;;;;5046258;28;4443;-63
2023/03/23 12:05:35;;;;;;;;;;;;;;;;;;5042962;28;4796;-63
2023/03/23 12:08:07;;;;;;;;;;;;;;;;;;5045441;28;4970;-63
2023/03/23 12:10:35;;;;;;;;;;;;;;;;;;5043726;28;1151;-63
2023/03/23 12:13:01;;;;;;;;;;;;;;;;;;5048187;28;4403;-62
2023/03/23 12:15:31;;;;;;;;;;;;;;;;;;5050334;28;4643;-62
2023/03/23 12:18:06;;;;;;;;;;;;;;;;;;5052752;28;4987;-62
2023/03/23 12:20:31;;;;;;;;;;;;;;;;;;5053315;28;4475;-62
2023/03/23 12:22:57;;;;;;;;;;;;;;;;;;5047087;28;5132;-63
2023/03/23 12:25:33;;;;;;;;;;;;;;;;;;5047305;28;1981;-63
2023/03/23 12:28:11;;;;;;;;;;;;;;;;;;5050397;28;4442;-63
2023/03/23 12:30:36;;;;;;;;;;;;;;;;;;5044465;28;4490;-62
2023/03/23 12:33:08;;;;;;;;;;;;;;;;;;5044356;28;4533;-63
2023/03/23 12:35:40;;;;;;;;;;;;;;;;;;5051360;28;4875;-62
2023/03/23 12:38:12;;;;;;;;;;;;;;;;;;5047373;28;5099;-63
2023/03/23 12:40:41;;;;;;;;;;;;;;;;;;5042282;28;1384;-62
2023/03/23 12:43:25;;;;;;;;;;;;;;;;;;5048298;28;4431;-62
2023/03/23 12:46:00;;;;;;;;;;;;;;;;;;5047961;28;4444;-63
2023/03/23 12:48:30;;;;;;;;;;;;;;;;;;5050309;28;4582;-63
2023/03/23 12:51:07;;;;;;;;;;;;;;;;;;5052070;28;4484;-63
2023/03/23 12:53:40;;;;;;;;;;;;;;;;;;5045258;28;4466;-62
2023/03/23 12:56:24;;;;;;;;;;;;;;;;;;5048276;28;4623;-62
2023/03/23 12:59:01;;;;;;;;;;;;;;;;;;5049685;28;5227;-64
2023/03/23 13:01:29;;;;;;;;;;;;;;;;;;5051520;28;1414;-64
2023/03/23 13:03:57;;;;;;;;;;;;;;;;;;5051459;28;4841;-62
2023/03/23 13:06:42;;;;;;;;;;;;;;;;;;5052419;28;5106;-63
2023/03/23 13:09:26;;;;;;;;;;;;;;;;;;5084711;28;4470;-62
2023/03/23 13:11:52;;;;;;;;;;;;;;;;;;5053185;28;4673;-62
2023/03/23 13:14:37;;;;;;;;;;;;;;;;;;5054114;28;4728;-62
2023/03/23 13:17:05;;;;;;;;;;;;;;;;;;5053069;28;4437;-62
2023/03/23 13:19:41;;;;;;;;;;;;;;;;;;5049547;28;1159;-62
2023/03/23 13:22:27;;;;;;;;;;;;;;;;;;5038813;28;4603;-63
2023/03/23 13:24:56;;;;;;;;;;;;;;;;;;5048608;28;4779;-62
2023/03/23 13:27:28;;;;;;;;;;;;;;;;;;5047653;28;5068;-63
2023/03/23 13:29:55;;;;;;;;;;;;;;;;;;5044293;28;5014;-62
2023/03/23 13:32:20;;;;;;;;;;;;;;;;;;5044233;28;4722;-62
2023/03/23 13:34:46;;;;;;;;;;;;;;;;;;5044609;28;4499;-63
2023/03/23 13:37:18;;;;;;;;;;;;;;;;;;5036942;28;3283;-62
2023/03/23 13:39:56;;;;;;;;;;;;;;;;;;5054297;28;5082;-61
2023/03/23 13:42:22;;;;;;;;;;;;;;;;;;5053464;28;4610;-63
2023/03/23 13:44:48;;;;;;;;;;;;;;;;;;5051602;28;4513;-60
2023/03/23 13:47:28;;;;;;;;;;;;;;;;;;5049444;28;4642;-59
2023/03/23 13:49:57;;;;;;;;;;;;;;;;;;5039566;28;5059;-59
2023/03/23 13:52:43;;;;;;;;;;;;;;;;;;5050587;28;3686;-59
2023/03/23 13:55:28;;;;;;;;;;;;;;;;;;5045774;28;4527;-59
2023/03/23 13:58:03;;;;;;;;;;;;;;;;;;5041256;28;4531;-59
2023/03/23 14:00:28;;;;;;;;;;;;;;;;;;5046945;28;4452;-59
2023/03/23 14:03:09;;;;;;;;;;;;;;;;;;5044697;28;4635;-59
2023/03/23 14:05:34;;;;;;;;;;;;;;;;;;5043929;28;4653;-59
2023/03/23 14:08:09;;;;;;;;;;;;;;;;;;5046519;28;4505;-60
2023/03/23 14:10:34;;;;;;;;;;;;;;;;;;5046270;28;1171;-60
2023/03/23 14:13:00;;;;;;;;;;;;;;;;;;5044578;28;5158;-60
2023/03/23 14:15:28;;;;;;;;;;;;;;;;;;5046555;28;4614;-60
2023/03/23 14:17:53;;;;;;;;;;;;;;;;;;5043478;28;4481;-60
2023/03/23 14:20:26;;;;;;;;;;;;;;;;;;5035791;28;4538;-60
2023/03/23 14:22:55;;;;;;;;;;;;;;;;;;5048221;28;5064;-60
2023/03/23 14:25:20;;;;;;;;;;;;;;;;;;5043989;28;1988;-60
2023/03/23 14:27:46;;;;;;;;;;;;;;;;;;5049187;28;4429;-60
2023/03/23 14:30:15;;;;;;;;;;;;;;;;;;5042150;28;5094;-60
2023/03/23 14:32:41;;;;;;;;;;;;;;;;;;5047196;28;4965;-60
2023/03/23 14:35:12;;;;;;;;;;;;;;;;;;5042669;28;5000;-60
2023/03/23 14:37:38;;;;;;;;;;;;;;;;;;5077817;28;1199;-60
2023/03/23 14:40:06;;;;;;;;;;;;;;;;;;5045137;28;4391;-60
2023/03/23 14:42:32;;;;;;;;;;;;;;;;;;5047542;28;4769;-59
2023/03/23 14:44:57;;;;;;;;;;;;;;;;;;5041369;28;5130;-61
2023/03/23 14:47:23;;;;;;;;;;;;;;;;;;5038919;28;4513;-61
2023/03/23 14:49:52;;;;;;;;;;;;;;;;;;5048363;28;4505;-61
2023/03/23 14:52:17;;;;;;;;;;;;;;;;;;5043955;28;1308;-61
2023/03/23 14:54:46;;;;;;;;;;;;;;;;;;5038520;28;4501;-61
2023/03/23 14:57:12;;;;;;;;;;;;;;;;;;5041248;28;4463;-61
2023/03/23 14:59:39;;;;;;;;;;;;;;;;;;5030759;28;4472;-61
2023/03/23 15:02:04;;;;;;;;;;;;;;;;;;5047044;28;5040;-61
2023/03/23 15:04:30;;;;;;;;;;;;;;;;;;5041260;28;4689;-61
2023/03/23 15:06:56;;;;;;;;;;;;;;;;;;5045063;28;4887;-61
2023/03/23 15:09:22;;;;;;;;;;;;;;;;;;5046617;28;5437;-61
2023/03/23 15:12:00;;;;;;;;;;;;;;;;;;5045644;28;4860;-61
2023/03/23 15:14:27;;;;;;;;;;;;;;;;;;5045901;28;4540;-61
2023/03/23 15:16:54;;;;;;;;;;;;;;;;;;5043182;28;4456;-60
2023/03/23 15:19:21;;;;;;;;;;;;;;;;;;5041355;28;1109;-60
2023/03/23 15:21:50;;;;;;;;;;;;;;;;;;5044706;28;4456;-60
2023/03/23 15:24:27;;;;;;;;;;;;;;;;;;5033858;28;5043;-60
2023/03/23 15:26:53;;;;;;;;;;;;;;;;;;5043739;28;4518;-60
2023/03/23 15:29:20;;;;;;;;;;;;;;;;;;5024409;28;4535;-60
2023/03/23 15:31:49;;;;;;;;;;;;;;;;;;5040352;28;4658;-60
2023/03/23 15:34:43;;;;;;;;;;;;;;;;;;5048379;28;1144;-61
2023/03/23 15:37:19;;;;;;;;;;;;;;;;;;5039172;28;4425;-60
2023/03/23 15:39:44;;;;;;;;;;;;;;;;;;5073247;28;4864;-61
2023/03/23 15:42:30;;;;;;;;;;;;;;;;;;5037880;28;4456;-61
2023/03/23 15:45:10;;;;;;;;;;;;;;;;;;5043835;28;4626;-60
2023/03/23 15:47:37;;;;;;;;;;;;;;;;;;5046829;28;5111;-60
2023/03/23 15:50:12;;;;;;;;;;;;;;;;;;5045423;28;4677;-60
2023/03/23 15:52:38;;;;;;;;;;;;;;;;;;5042285;28;1245;-60
2023/03/23 15:55:04;;;;;;;;;;;;;;;;;;5043798;28;4957;-60
2023/03/23 15:57:29;;;;;;;;;;;;;;;;;;5037839;28;4612;-61
2023/03/23 15:59:54;;;;;;;;;;;;;;;;;;5039393;28;5184;-60
2023/03/23 16:02:21;;;;;;;;;;;;;;;;;;5047671;28;5142;-60
2023/03/23 16:04:46;;;;;;;;;;;;;;;;;;5045791;28;4979;-60
2023/03/23 16:07:13;;;;;;;;;;;;;;;;;;5046179;28;1972;-60
2023/03/23 16:09:39;;;;;;;;;;;;;;;;;;5071425;28;4651;-60
2023/03/23 16:12:04;;;;;;;;;;;;;;;;;;5041972;28;4464;-60
2023/03/23 16:14:30;;;;;;;;;;;;;;;;;;5044175;28;4491;-60
2023/03/23 16:16:55;;;;;;;;;;;;;;;;;;5043366;28;5202;-60
2023/03/23 16:19:23;;;;;;;;;;;;;;;;;;5044870;28;1163;-60
2023/03/23 16:21:48;;;;;;;;;;;;;;;;;;5046037;28;4856;-60
2023/03/23 16:24:13;;;;;;;;;;;;;;;;;;5040566;28;4498;-60
2023/03/23 16:26:39;;;;;;;;;;;;;;;;;;5045561;28;5144;-60
2023/03/23 16:29:14;;;;;;;;;;;;;;;;;;5045921;28;4713;-60
2023/03/23 16:31:39;;;;;;;;;;;;;;;;;;5041515;28;1487;-60
2023/03/23 16:34:05;;;;;;;;;;;;;;;;;;5047540;28;4585;-60
2023/03/23 16:36:31;;;;;;;;;;;;;;;;;;5041036;28;4603;-60
2023/03/23 16:38:56;;;;;;;;;;;;;;;;;;5047154;28;5035;-60
2023/03/23 16:41:21;;;;;;;;;;;;;;;;;;5041648;28;4476;-60
2023/03/23 16:43:47;;;;;;;;;;;;;;;;;;5041515;28;4689;-60
2023/03/23 16:46:12;;;;;;;;;;;;;;;;;;5044193;28;1906;-60
2023/03/23 16:48:38;;;;;;;;;;;;;;;;;;5047411;28;4921;-60
2023/03/23 16:51:03;;;;;;;;;;;;;;;;;;5046199;28;4681;-60
2023/03/23 16:53:29;;;;;;;;;;;;;;;;;;5072132;28;4479;-60
2023/03/23 16:55:56;;;;;;;;;;;;;;;;;;5040047;28;4935;-60
2023/03/23 16:58:21;;;;;;;;;;;;;;;;;;5046193;28;1155;-60
2023/03/23 17:00:47;;;;;;;;;;;;;;;;;;5046852;28;4944;-60
2023/03/23 17:03:14;;;;;;;;;;;;;;;;;;5042002;28;4665;-60
2023/03/23 17:05:40;;;;;;;;;;;;;;;;;;5049916;28;5002;-60
2023/03/23 17:08:06;;;;;;;;;;;;;;;;;;5043705;28;4725;-60
2023/03/23 17:10:31;;;;;;;;;;;;;;;;;;5042439;28;1239;-60